Time;durP1;ratioP1;P1;durP2;ratioP2;P2;SDS_P1;SDS_P2;PMS_P1;PMS_P2;Temp;Humidity;BMP_temperature;BMP_pressure;BME280_temperature;BME280_humidity;BME280_pressure;Samples;Min_cycle;Max_cycle;Signal;HPM_P1;HPM_P2
2023/12/24 00:01:58;;;;;;;0.10;0.10;;;;;;;7.23;98.26;95206.03;4363477;32;20240;-61
2023/12/24 00:04:23;;;;;;;0.07;0.07;;;;;;;7.21;98.57;95192.31;4349072;32;20327;-61
2023/12/24 00:06:48;;;;;;;0.10;0.10;;;;;;;7.25;98.07;95193.34;4362728;32;20328;-62
2023/12/24 00:09:15;;;;;;;0.00;0.00;;;;;;;7.19;98.41;95210.25;4364299;32;20200;-62
2023/12/24 00:11:41;;;;;;;0.30;0.30;;;;;;;7.29;97.91;95207.53;4377333;32;20235;-62
2023/12/24 00:14:07;;;;;;;0.17;0.17;;;;;;;7.28;97.24;95200.69;4370364;32;20326;-62
2023/12/24 00:16:32;;;;;;;0.10;0.10;;;;;;;7.30;96.63;95211.75;4363851;32;20289;-62
2023/12/24 00:18:59;;;;;;;0.10;0.10;;;;;;;7.28;96.66;95213.87;4355233;32;20241;-62
2023/12/24 00:21:24;;;;;;;0.17;0.07;;;;;;;7.33;96.02;95211.22;4387599;32;20213;-61
2023/12/24 00:23:50;;;;;;;0.00;0.00;;;;;;;7.40;95.96;95211.69;4380466;32;20356;-62
2023/12/24 00:26:16;;;;;;;0.07;0.07;;;;;;;7.40;95.18;95216.97;4374848;32;20196;-62
2023/12/24 00:28:45;;;;;;;0.00;0.00;;;;;;;7.41;95.14;95213.28;4369389;32;20220;-62
2023/12/24 00:31:10;;;;;;;0.00;0.00;;;;;;;7.28;95.04;95202.53;4379682;32;20284;-62
2023/12/24 00:33:37;;;;;;;0.00;0.00;;;;;;;7.35;95.40;95208.31;4378836;32;20324;-62
2023/12/24 00:36:02;;;;;;;0.00;0.00;;;;;;;7.32;94.33;95188.53;4387178;32;20201;-62
2023/12/24 00:38:31;;;;;;;0.00;0.00;;;;;;;7.40;94.00;95195.84;4342355;32;20284;-61
2023/12/24 00:40:58;;;;;;;0.03;0.03;;;;;;;7.35;94.14;95192.47;4376158;32;20208;-62
2023/12/24 00:43:25;;;;;;;0.00;0.00;;;;;;;7.35;94.06;95195.91;4389164;32;20308;-61
2023/12/24 00:45:50;;;;;;;0.03;0.00;;;;;;;7.45;94.01;95187.12;4396433;32;20386;-62
2023/12/24 00:48:16;;;;;;;0.10;0.10;;;;;;;7.39;94.02;95190.84;4396988;32;20342;-61
2023/12/24 00:50:43;;;;;;;0.03;0.03;;;;;;;7.43;93.59;95195.31;4361983;32;20192;-62
2023/12/24 00:53:09;;;;;;;0.00;0.00;;;;;;;7.31;93.92;95191.44;4386675;32;20289;-62
2023/12/24 00:55:35;;;;;;;0.00;0.00;;;;;;;7.38;93.72;95199.84;4396139;32;20320;-62
2023/12/24 00:58:02;;;;;;;0.00;0.00;;;;;;;7.32;93.47;95193.81;4389833;32;20300;-61
2023/12/24 01:00:29;;;;;;;0.00;0.00;;;;;;;7.34;93.43;95204.88;4348735;32;20283;-61
2023/12/24 01:02:55;;;;;;;0.00;0.00;;;;;;;7.39;93.29;95215.41;4363613;32;20284;-61
2023/12/24 01:05:22;;;;;;;0.00;0.00;;;;;;;7.38;93.47;95197.19;4381283;32;20389;-62
2023/12/24 01:07:47;;;;;;;0.00;0.00;;;;;;;7.37;93.62;95214.87;4377174;32;20305;-61
2023/12/24 01:10:13;;;;;;;0.00;0.00;;;;;;;7.41;93.27;95215.91;4344719;32;20288;-61
2023/12/24 01:12:38;;;;;;;0.00;0.00;;;;;;;7.36;93.65;95213.31;4357725;32;20250;-61
2023/12/24 01:15:05;;;;;;;0.00;0.00;;;;;;;7.37;93.62;95211.44;4391351;32;20266;-62
2023/12/24 01:17:30;;;;;;;0.00;0.00;;;;;;;7.41;93.37;95213.28;4369738;32;20196;-62
2023/12/24 01:19:58;;;;;;;0.10;0.10;;;;;;;7.30;93.86;95211.75;4347256;32;20348;-62
2023/12/24 01:22:24;;;;;;;0.00;0.00;;;;;;;7.31;93.55;95213.34;4384851;32;20215;-62
2023/12/24 01:24:50;;;;;;;0.10;0.10;;;;;;;7.34;93.70;95228.63;4382966;32;21722;-61
2023/12/24 01:27:16;;;;;;;0.00;0.00;;;;;;;7.31;94.03;95202.78;4356960;32;20329;-62
2023/12/24 01:29:41;;;;;;;0.00;0.00;;;;;;;7.35;93.23;95232.03;4375266;32;20299;-62
2023/12/24 01:32:08;;;;;;;0.00;0.00;;;;;;;7.32;93.67;95225.47;4360611;32;20249;-62
2023/12/24 01:34:36;;;;;;;0.00;0.00;;;;;;;7.25;93.81;95209.19;4381147;32;20203;-61
2023/12/24 01:37:03;;;;;;;0.30;0.17;;;;;;;7.36;93.82;95215.16;4399625;32;20280;-62
2023/12/24 01:39:29;;;;;;;0.00;0.00;;;;;;;7.41;93.15;95226.47;4399537;32;20331;-61
2023/12/24 01:41:55;;;;;;;0.00;0.00;;;;;;;7.40;93.28;95227.53;4375929;32;20283;-61
2023/12/24 01:44:21;;;;;;;0.00;0.00;;;;;;;7.31;93.31;95233.66;4397415;32;20259;-61
2023/12/24 01:46:47;;;;;;;0.10;0.10;;;;;;;7.32;93.15;95222.03;4389491;32;20276;-61
2023/12/24 01:49:15;;;;;;;0.00;0.00;;;;;;;7.27;93.16;95212.34;4394990;32;20224;-61
2023/12/24 01:51:41;;;;;;;0.10;0.10;;;;;;;7.32;93.75;95214.91;4402414;32;20309;-61
2023/12/24 01:54:07;;;;;;;0.03;0.03;;;;;;;7.23;93.67;95212.09;4390714;32;20288;-62
2023/12/24 01:56:33;;;;;;;0.00;0.00;;;;;;;7.29;93.15;95209.38;4380184;32;20314;-62
2023/12/24 01:59:00;;;;;;;0.00;0.00;;;;;;;7.21;92.98;95230.03;4380868;32;20207;-61
2023/12/24 02:01:26;;;;;;;0.00;0.00;;;;;;;7.27;93.87;95201.00;4379939;32;20232;-62
2023/12/24 02:03:54;;;;;;;0.20;0.20;;;;;;;7.35;92.22;95224.13;4378907;32;20366;-62
2023/12/24 02:06:24;;;;;;;0.00;0.00;;;;;;;7.28;92.85;95213.87;4387778;32;23387;-61
2023/12/24 02:08:49;;;;;;;0.00;0.00;;;;;;;7.31;93.12;95194.84;4387260;32;20397;-61
2023/12/24 02:11:16;;;;;;;0.00;0.00;;;;;;;7.28;92.88;95195.41;4352041;32;20346;-62
2023/12/24 02:13:43;;;;;;;0.00;0.00;;;;;;;7.34;94.29;95188.25;4385725;32;20192;-61
2023/12/24 02:16:11;;;;;;;0.00;0.00;;;;;;;7.32;93.12;95199.06;4380301;32;20300;-62
2023/12/24 02:18:38;;;;;;;0.00;0.00;;;;;;;7.24;92.72;95218.16;4383878;32;20351;-61
2023/12/24 02:21:05;;;;;;;0.00;0.00;;;;;;;7.30;92.92;95193.28;4391662;32;20291;-63
2023/12/24 02:23:31;;;;;;;0.00;0.00;;;;;;;7.24;92.29;95189.13;4388718;32;20322;-62
2023/12/24 02:26:02;;;;;;;0.00;0.00;;;;;;;7.22;92.33;95193.88;4378381;32;20347;-61
2023/12/24 02:28:34;;;;;;;0.10;0.10;;;;;;;7.28;93.17;95170.88;4331275;32;20284;-62
2023/12/24 02:31:04;;;;;;;0.00;0.00;;;;;;;7.25;92.96;95188.06;4413698;32;20291;-61
2023/12/24 02:33:34;;;;;;;0.00;0.00;;;;;;;7.23;92.40;95184.91;4370831;32;20296;-62
2023/12/24 02:36:01;;;;;;;0.00;0.00;;;;;;;7.25;91.68;95172.25;4374751;32;20295;-61
2023/12/24 02:38:27;;;;;;;0.00;0.00;;;;;;;7.18;92.41;95180.47;4386656;32;20310;-61
2023/12/24 02:40:54;;;;;;;0.00;0.00;;;;;;;7.27;93.35;95188.59;4380117;32;20338;-61
2023/12/24 02:43:20;;;;;;;0.10;0.10;;;;;;;7.23;93.24;95190.19;4380497;32;20288;-61
2023/12/24 02:45:45;;;;;;;0.00;0.00;;;;;;;7.19;93.03;95182.03;4386105;32;20307;-62
2023/12/24 02:48:11;;;;;;;0.10;0.10;;;;;;;7.10;94.02;95190.78;4403561;32;20291;-62
2023/12/24 02:50:36;;;;;;;5.50;0.33;;;;;;;7.19;93.56;95178.59;4387257;32;20305;-62
2023/12/24 02:53:02;;;;;;;0.00;0.00;;;;;;;7.21;93.12;95173.84;4373013;32;20222;-62
2023/12/24 02:55:27;;;;;;;0.03;0.03;;;;;;;7.24;93.21;95176.72;4401347;32;20192;-61
2023/12/24 02:57:56;;;;;;;0.20;0.20;;;;;;;7.21;93.23;95189.69;4396502;32;20278;-61
2023/12/24 03:00:21;;;;;;;0.00;0.00;;;;;;;7.28;93.01;95171.66;4371604;32;20208;-61
2023/12/24 03:02:49;;;;;;;0.00;0.00;;;;;;;7.19;92.80;95175.97;4379959;32;20303;-62
2023/12/24 03:05:15;;;;;;;0.20;0.20;;;;;;;7.16;92.49;95179.16;4369333;32;20200;-61
2023/12/24 03:07:41;;;;;;;0.00;0.00;;;;;;;7.25;92.54;95156.41;4390015;32;20313;-62
2023/12/24 03:10:06;;;;;;;0.03;0.03;;;;;;;7.22;94.03;95178.84;4387430;32;20287;-61
2023/12/24 03:12:35;;;;;;;0.00;0.00;;;;;;;7.18;92.93;95180.47;4386827;32;20199;-62
2023/12/24 03:15:00;;;;;;;0.07;0.07;;;;;;;7.15;92.60;95190.75;4384337;32;20256;-63
2023/12/24 03:17:25;;;;;;;0.00;0.00;;;;;;;7.13;93.46;95190.25;4376044;32;20373;-62
2023/12/24 03:19:50;;;;;;;0.00;0.00;;;;;;;7.19;92.91;95183.87;4401370;32;20216;-61
2023/12/24 03:22:16;;;;;;;0.00;0.00;;;;;;;7.19;92.60;95194.44;4396845;32;20291;-62
2023/12/24 03:24:41;;;;;;;0.00;0.00;;;;;;;7.23;92.12;95184.91;4390762;32;20188;-62
2023/12/24 03:27:07;;;;;;;0.00;0.00;;;;;;;7.20;92.37;95180.19;4402999;32;20259;-62
2023/12/24 03:29:32;;;;;;;0.00;0.00;;;;;;;7.17;91.72;95207.09;4395803;32;20218;-62
2023/12/24 03:31:59;;;;;;;0.00;0.00;;;;;;;7.22;91.88;95217.62;4393154;32;20204;-61
2023/12/24 03:34:24;;;;;;;0.20;0.10;;;;;;;7.33;91.81;95211.22;4385199;32;20192;-61
2023/12/24 03:36:50;;;;;;;0.10;0.10;;;;;;;7.45;90.81;95222.22;4393061;32;20496;-62
2023/12/24 03:39:16;;;;;;;0.10;0.10;;;;;;;7.39;91.32;95204.84;4388459;32;20214;-61
2023/12/24 03:41:42;;;;;;;0.00;0.00;;;;;;;7.38;90.80;95208.53;4402813;32;20276;-62
2023/12/24 03:44:08;;;;;;;0.00;0.00;;;;;;;7.31;91.42;95221.25;4383144;32;20252;-61
2023/12/24 03:46:34;;;;;;;0.00;0.00;;;;;;;7.44;91.12;95233.84;4390160;32;20281;-62
2023/12/24 03:48:59;;;;;;;0.00;0.00;;;;;;;7.43;90.83;95226.19;4366455;32;20353;-61
2023/12/24 03:51:24;;;;;;;0.00;0.00;;;;;;;7.45;91.48;95240.69;4398232;32;20222;-62
2023/12/24 03:53:51;;;;;;;0.00;0.00;;;;;;;7.44;90.79;95257.59;4401432;32;20272;-61
2023/12/24 03:56:17;;;;;;;0.00;0.00;;;;;;;7.48;90.49;95234.84;4374261;32;20200;-62
2023/12/24 03:58:43;;;;;;;0.90;0.30;;;;;;;7.47;90.68;95233.28;4351664;32;20352;-62
2023/12/24 04:01:09;;;;;;;0.00;0.00;;;;;;;7.45;90.20;95235.41;4400330;32;20181;-62
2023/12/24 04:03:38;;;;;;;0.00;0.00;;;;;;;7.35;90.17;95245.25;4372984;32;20299;-62
2023/12/24 04:06:15;;;;;;;0.00;0.00;;;;;;;7.37;90.37;95237.84;4360507;32;20196;-61
2023/12/24 04:08:43;;;;;;;0.10;0.10;;;;;;;7.44;89.96;95231.19;4395997;32;20356;-61
2023/12/24 04:11:14;;;;;;;0.00;0.00;;;;;;;7.42;89.16;95222.75;4374615;32;20303;-61
2023/12/24 04:13:40;;;;;;;0.10;0.10;;;;;;;7.43;89.64;95224.34;4389837;32;20431;-62
2023/12/24 04:16:10;;;;;;;0.20;0.20;;;;;;;7.54;89.63;95219.75;4376286;32;20288;-62
2023/12/24 04:18:37;;;;;;;0.17;0.17;;;;;;;7.47;89.33;95211.38;4376001;32;20264;-62
2023/12/24 04:21:04;;;;;;;0.00;0.00;;;;;;;7.44;89.32;95220.66;4398493;32;20287;-62
2023/12/24 04:23:29;;;;;;;0.00;0.00;;;;;;;7.45;89.37;95219.56;4377687;32;20315;-62
2023/12/24 04:25:55;;;;;;;0.00;0.00;;;;;;;7.36;89.87;95220.44;4371466;32;20346;-62
2023/12/24 04:28:21;;;;;;;0.00;0.00;;;;;;;7.42;90.03;95222.75;4361141;32;20327;-61
2023/12/24 04:30:46;;;;;;;0.00;0.00;;;;;;;7.42;90.25;95209.56;4370920;32;20282;-61
2023/12/24 04:33:13;;;;;;;0.00;0.00;;;;;;;7.52;89.69;95211.31;4368726;32;20352;-61
2023/12/24 04:35:41;;;;;;;0.00;0.00;;;;;;;7.46;89.79;95215.88;4376587;32;20239;-61
2023/12/24 04:38:07;;;;;;;0.00;0.00;;;;;;;7.47;89.19;95216.66;4388869;32;20276;-62
2023/12/24 04:40:33;;;;;;;0.00;0.00;;;;;;;7.41;90.35;95217.75;4390277;32;20318;-61
2023/12/24 04:42:59;;;;;;;0.00;0.00;;;;;;;7.39;90.38;95215.41;4397751;32;20208;-61
2023/12/24 04:45:26;;;;;;;0.10;0.10;;;;;;;7.43;89.90;95199.81;4341083;32;20336;-61
2023/12/24 04:47:55;;;;;;;0.00;0.00;;;;;;;7.42;90.90;95183.19;4355026;32;20319;-62
2023/12/24 04:50:21;;;;;;;0.10;0.10;;;;;;;7.44;90.21;95167.88;4392638;32;20382;-62
2023/12/24 04:52:47;;;;;;;0.00;0.00;;;;;;;7.41;90.18;95180.81;4400871;32;20288;-61
2023/12/24 04:55:13;;;;;;;0.10;0.10;;;;;;;7.35;90.30;95187.97;4401757;32;20208;-62
2023/12/24 04:57:39;;;;;;;0.03;0.03;;;;;;;7.34;90.88;95189.03;4388961;32;20192;-62
2023/12/24 05:00:06;;;;;;;0.10;0.10;;;;;;;7.40;90.90;95193.22;4388868;32;20329;-61
2023/12/24 05:02:33;;;;;;;0.00;0.00;;;;;;;7.44;90.30;95177.63;4388811;32;20203;-62
2023/12/24 05:04:59;;;;;;;0.00;0.00;;;;;;;7.46;89.74;95188.69;4382333;32;20292;-61
2023/12/24 05:07:26;;;;;;;0.00;0.00;;;;;;;7.41;90.86;95163.13;4387317;32;20384;-62
2023/12/24 05:09:52;;;;;;;0.00;0.00;;;;;;;7.43;90.74;95168.94;4376036;32;20398;-62
2023/12/24 05:12:18;;;;;;;0.00;0.00;;;;;;;7.30;91.58;95164.25;4379935;32;20313;-61
2023/12/24 05:14:43;;;;;;;0.10;0.10;;;;;;;7.36;91.57;95165.81;4393155;32;20355;-61
2023/12/24 05:17:08;;;;;;;0.00;0.00;;;;;;;7.43;90.33;95161.00;4412670;32;20188;-61
2023/12/24 05:19:36;;;;;;;0.00;0.00;;;;;;;7.37;90.82;95148.13;4405254;32;20192;-61
2023/12/24 05:22:01;;;;;;;0.00;0.00;;;;;;;7.41;90.60;95128.03;4370335;32;20243;-63
2023/12/24 05:24:28;;;;;;;0.00;0.00;;;;;;;7.35;90.94;95121.22;4384250;32;20299;-61
2023/12/24 05:26:53;;;;;;;0.00;0.00;;;;;;;7.38;91.84;95121.47;4383660;32;20188;-61
2023/12/24 05:29:20;;;;;;;0.00;0.00;;;;;;;7.38;90.53;95134.66;4382111;32;20279;-61
2023/12/24 05:31:47;;;;;;;0.00;0.00;;;;;;;7.42;91.45;95130.41;4368974;32;20248;-61
2023/12/24 05:34:13;;;;;;;0.00;0.00;;;;;;;7.36;91.07;95142.06;4390841;32;20349;-61
2023/12/24 05:36:39;;;;;;;0.00;0.00;;;;;;;7.41;90.88;95122.75;4390115;32;20328;-61
2023/12/24 05:39:05;;;;;;;0.00;0.00;;;;;;;7.37;92.14;95133.06;4379209;32;20219;-62
2023/12/24 05:41:32;;;;;;;0.00;0.00;;;;;;;7.46;90.94;95126.16;4385362;32;20279;-62
2023/12/24 05:43:58;;;;;;;0.03;0.03;;;;;;;7.40;91.54;95139.66;4359855;32;20292;-62
2023/12/24 05:46:24;;;;;;;0.10;0.10;;;;;;;7.55;91.00;95158.78;4370838;32;20193;-62
2023/12/24 05:48:51;;;;;;;0.00;0.00;;;;;;;7.62;91.65;95155.03;4377638;32;20295;-62
2023/12/24 05:51:16;;;;;;;0.00;0.00;;;;;;;7.71;91.20;95156.00;4359538;32;20293;-62
2023/12/24 05:53:41;;;;;;;0.00;0.00;;;;;;;7.59;90.97;95170.34;4331341;32;20288;-62
2023/12/24 05:56:08;;;;;;;0.00;0.00;;;;;;;7.48;91.16;95160.19;4372834;32;20298;-61
2023/12/24 05:58:33;;;;;;;0.00;0.00;;;;;;;7.48;91.02;95170.75;4334417;32;20189;-61
2023/12/24 06:00:59;;;;;;;0.00;0.00;;;;;;;7.41;91.61;95154.44;4366840;32;20299;-62
2023/12/24 06:03:24;;;;;;;0.10;0.10;;;;;;;7.49;91.44;95153.81;4374757;32;20232;-61
2023/12/24 06:05:50;;;;;;;0.00;0.00;;;;;;;7.45;92.47;95179.22;4380404;32;20310;-61
2023/12/24 06:08:18;;;;;;;0.00;0.00;;;;;;;7.45;92.07;95166.81;4367043;32;20200;-62
2023/12/24 06:10:44;;;;;;;0.00;0.00;;;;;;;7.47;91.93;95159.41;4346036;32;20339;-61
2023/12/24 06:13:11;;;;;;;0.07;0.07;;;;;;;7.51;91.79;95143.75;4371195;32;20283;-62
2023/12/24 06:15:38;;;;;;;2.63;0.20;;;;;;;7.41;92.23;95155.22;4371405;32;20201;-61
2023/12/24 06:18:05;;;;;;;0.00;0.00;;;;;;;7.36;92.65;95157.88;4382187;32;20276;-62
2023/12/24 06:20:32;;;;;;;0.00;0.00;;;;;;;7.36;92.89;95149.97;4388777;32;20271;-63
2023/12/24 06:22:58;;;;;;;0.00;0.00;;;;;;;7.39;92.83;95136.22;4376217;32;20284;-61
2023/12/24 06:25:25;;;;;;;0.00;0.00;;;;;;;7.35;93.09;95139.69;4375969;32;20276;-61
2023/12/24 06:27:52;;;;;;;0.10;0.10;;;;;;;7.29;93.74;95154.78;4379861;32;20371;-62
2023/12/24 06:30:20;;;;;;;0.00;0.00;;;;;;;7.39;93.71;95154.69;4372317;32;20288;-62
2023/12/24 06:32:46;;;;;;;0.00;0.00;;;;;;;7.27;93.82;95145.59;4371300;32;20280;-61
2023/12/24 06:35:14;;;;;;;0.07;0.07;;;;;;;7.44;93.20;95138.03;4372833;32;20305;-62
2023/12/24 06:37:40;;;;;;;0.00;0.00;;;;;;;7.38;92.69;95124.09;4388078;32;20291;-61
2023/12/24 06:40:06;;;;;;;0.10;0.10;;;;;;;7.40;93.29;95135.16;4381317;32;20303;-62
2023/12/24 06:42:31;;;;;;;0.50;0.13;;;;;;;7.46;92.48;95131.44;4398412;32;20192;-62
2023/12/24 06:44:57;;;;;;;0.30;0.30;;;;;;;7.42;92.54;95150.72;4395675;32;20267;-61
2023/12/24 06:47:22;;;;;;;0.10;0.10;;;;;;;7.30;93.05;95137.09;4391316;32;20298;-61
2023/12/24 06:49:47;;;;;;;0.10;0.10;;;;;;;7.24;93.28;95134.53;4387297;32;20211;-61
2023/12/24 06:52:14;;;;;;;0.57;0.20;;;;;;;7.27;93.47;95142.94;4368668;32;20192;-62
2023/12/24 06:54:39;;;;;;;0.00;0.00;;;;;;;7.30;93.18;95143.16;4361990;32;20195;-62
2023/12/24 06:57:07;;;;;;;0.10;0.10;;;;;;;7.27;92.97;95137.66;4381656;32;20290;-62
2023/12/24 06:59:33;;;;;;;0.00;0.00;;;;;;;7.29;93.24;95124.97;4391257;32;20187;-61
2023/12/24 07:02:01;;;;;;;0.00;0.00;;;;;;;7.35;93.43;95118.59;4393606;32;20359;-61
2023/12/24 07:04:26;;;;;;;0.00;0.00;;;;;;;7.37;92.58;95106.69;4381318;32;20297;-62
2023/12/24 07:06:53;;;;;;;0.00;0.00;;;;;;;7.41;92.08;95118.28;4355926;32;20291;-61
2023/12/24 07:09:19;;;;;;;0.00;0.00;;;;;;;7.39;92.71;95107.22;4391791;32;20187;-61
2023/12/24 07:11:45;;;;;;;0.00;0.00;;;;;;;7.44;92.35;95099.25;4391922;32;20297;-61
2023/12/24 07:14:10;;;;;;;0.10;0.10;;;;;;;7.49;91.98;95104.47;4388974;32;20239;-62
2023/12/24 07:16:36;;;;;;;0.00;0.00;;;;;;;7.51;91.82;95089.12;4389356;32;20176;-61
2023/12/24 07:19:05;;;;;;;0.00;0.00;;;;;;;7.54;92.05;95091.22;4381295;32;20208;-62
2023/12/24 07:21:31;;;;;;;0.37;0.27;;;;;;;7.52;91.37;95092.56;4385387;32;20231;-62
2023/12/24 07:23:57;;;;;;;0.00;0.00;;;;;;;7.54;91.55;95106.25;4392556;32;20350;-61
2023/12/24 07:26:22;;;;;;;0.37;0.10;;;;;;;7.55;91.66;95097.28;4370507;32;20280;-61
2023/12/24 07:28:47;;;;;;;0.00;0.00;;;;;;;7.58;91.15;95097.50;4419394;32;20229;-61
2023/12/24 07:31:14;;;;;;;0.13;0.13;;;;;;;7.47;91.56;95084.72;4393833;32;20266;-62
2023/12/24 07:33:42;;;;;;;0.00;0.00;;;;;;;7.55;91.25;95082.22;4410406;32;20235;-61
2023/12/24 07:36:07;;;;;;;0.47;0.20;;;;;;;7.62;91.77;95086.41;4411037;32;20278;-62
2023/12/24 07:38:32;;;;;;;0.00;0.00;;;;;;;7.63;91.60;95086.13;4403028;32;20318;-62
2023/12/24 07:40:58;;;;;;;0.20;0.20;;;;;;;7.58;91.36;95075.63;4393414;32;20198;-61
2023/12/24 07:43:27;;;;;;;0.00;0.00;;;;;;;7.65;91.20;95075.28;4375419;32;20203;-61
2023/12/24 07:45:53;;;;;;;0.10;0.10;;;;;;;7.64;91.51;95082.41;4369906;32;20240;-61
2023/12/24 07:48:19;;;;;;;0.10;0.10;;;;;;;7.75;91.71;95075.16;4373073;32;20310;-61
2023/12/24 07:50:47;;;;;;;0.10;0.10;;;;;;;7.72;91.00;95088.91;4350864;32;20258;-62
2023/12/24 07:53:12;;;;;;;0.00;0.00;;;;;;;7.85;90.44;95090.91;4375773;32;20201;-61
2023/12/24 07:55:38;;;;;;;0.00;0.00;;;;;;;7.87;90.57;95086.91;4395804;32;20306;-61
2023/12/24 07:58:04;;;;;;;0.07;0.07;;;;;;;7.87;90.97;95094.06;4360478;32;20196;-61
2023/12/24 08:00:29;;;;;;;0.00;0.00;;;;;;;7.94;90.72;95086.56;4384750;32;20267;-62
2023/12/24 08:02:54;;;;;;;0.00;0.00;;;;;;;7.84;90.91;95084.06;4382531;32;20249;-61
2023/12/24 08:05:20;;;;;;;0.20;0.20;;;;;;;7.89;91.12;95086.63;4384004;32;20192;-61
2023/12/24 08:07:46;;;;;;;0.33;0.07;;;;;;;7.87;91.33;95088.78;4374438;32;20196;-61
2023/12/24 08:10:14;;;;;;;0.10;0.10;;;;;;;7.92;92.05;95083.41;4355011;32;20261;-62
2023/12/24 08:12:40;;;;;;;0.00;0.00;;;;;;;7.94;90.34;95094.47;4388467;32;20284;-62
2023/12/24 08:15:08;;;;;;;0.00;0.00;;;;;;;8.04;90.47;95107.59;4379269;32;20299;-62
2023/12/24 08:17:33;;;;;;;0.20;0.20;;;;;;;8.11;89.85;95102.72;4367306;32;20260;-62
2023/12/24 08:19:59;;;;;;;0.00;0.00;;;;;;;8.07;90.27;95099.09;4375306;32;20295;-62
2023/12/24 08:22:26;;;;;;;0.10;0.10;;;;;;;8.05;89.64;95125.00;4372366;32;20255;-61
2023/12/24 08:24:51;;;;;;;0.10;0.10;;;;;;;8.02;89.84;95095.72;4381712;32;20366;-62
2023/12/24 08:27:19;;;;;;;0.27;0.27;;;;;;;8.00;89.93;95088.09;4392387;32;20303;-62
2023/12/24 08:29:46;;;;;;;0.60;0.27;;;;;;;8.07;90.40;95107.03;4372634;32;20310;-61
2023/12/24 08:32:13;;;;;;;0.00;0.00;;;;;;;8.03;88.63;95100.72;4382733;32;20292;-62
2023/12/24 08:34:39;;;;;;;0.00;0.00;;;;;;;8.02;88.50;95109.72;4389883;32;20294;-62
2023/12/24 08:37:05;;;;;;;0.07;0.07;;;;;;;8.06;89.29;95113.38;4358237;32;20323;-61
2023/12/24 08:39:31;;;;;;;0.00;0.00;;;;;;;7.98;91.90;95111.34;4364788;32;20212;-63
2023/12/24 08:41:56;;;;;;;0.00;0.00;;;;;;;7.93;93.39;95101.63;4347403;32;20328;-62
2023/12/24 08:44:22;;;;;;;0.03;0.03;;;;;;;7.83;95.28;95104.38;4363878;32;20183;-61
2023/12/24 08:46:48;;;;;;;0.20;0.20;;;;;;;7.73;97.81;95112.41;4379680;32;20218;-62
2023/12/24 08:49:15;;;;;;;0.00;0.00;;;;;;;7.76;97.90;95092.59;4382231;32;20252;-61
2023/12/24 08:51:41;;;;;;;0.13;0.10;;;;;;;7.78;98.81;95095.72;4353142;32;20335;-61
2023/12/24 08:54:10;;;;;;;0.10;0.07;;;;;;;7.72;98.58;95092.34;4372623;32;20340;-62
2023/12/24 08:56:35;;;;;;;0.10;0.10;;;;;;;7.64;99.23;95089.56;4388196;32;20222;-62
2023/12/24 08:59:08;;;;;;;0.00;0.00;;;;;;;7.69;100.00;95084.22;4390922;32;20287;-62
2023/12/24 09:01:33;;;;;;;0.00;0.00;;;;;;;7.63;100.00;95077.41;4388348;32;20302;-62
2023/12/24 09:04:19;;;;;;;0.30;0.10;;;;;;;7.63;99.31;95082.69;4372548;32;20192;-62
2023/12/24 09:06:54;;;;;;;0.13;0.07;;;;;;;7.74;97.55;95068.31;4390075;32;20374;-61
2023/12/24 09:09:20;;;;;;;0.00;0.00;;;;;;;7.69;98.57;95065.75;4378750;32;20307;-62
2023/12/24 09:11:49;;;;;;;0.63;0.20;;;;;;;7.83;98.05;95077.97;4380482;32;20292;-62
2023/12/24 09:14:15;;;;;;;0.10;0.10;;;;;;;7.87;95.57;95062.37;4370445;32;20331;-62
2023/12/24 09:16:41;;;;;;;0.27;0.20;;;;;;;8.00;96.54;95066.16;4388414;32;20373;-61
2023/12/24 09:19:08;;;;;;;0.37;0.17;;;;;;;8.11;92.11;95051.75;4384559;32;20240;-62
2023/12/24 09:21:35;;;;;;;0.10;0.10;;;;;;;8.15;94.43;95052.75;4291607;32;20298;-62
2023/12/24 09:24:01;;;;;;;0.07;0.07;;;;;;;8.12;98.10;95040.13;4319637;32;20297;-62
2023/12/24 09:26:26;;;;;;;0.00;0.00;;;;;;;7.96;99.69;95058.00;4334023;32;20333;-62
2023/12/24 09:28:52;;;;;;;1.13;0.27;;;;;;;7.98;100.00;95055.88;4367251;32;20292;-62
2023/12/24 09:31:17;;;;;;;0.00;0.00;;;;;;;7.85;100.00;95056.56;4391025;32;20192;-62
2023/12/24 09:33:44;;;;;;;0.10;0.10;;;;;;;7.91;100.00;95074.69;4387123;32;20208;-61
2023/12/24 09:36:10;;;;;;;0.00;0.00;;;;;;;7.94;100.00;95084.72;4388724;32;20256;-62
2023/12/24 09:38:36;;;;;;;0.37;0.20;;;;;;;7.88;100.00;95087.72;4389627;32;20276;-62
2023/12/24 09:41:01;;;;;;;0.20;0.20;;;;;;;7.87;100.00;95079.00;4375440;32;20192;-63
2023/12/24 09:43:30;;;;;;;0.00;0.00;;;;;;;7.77;100.00;95073.03;4372319;32;20299;-62
2023/12/24 09:45:57;;;;;;;0.10;0.10;;;;;;;7.67;100.00;95078.44;4393300;32;20180;-62
2023/12/24 09:48:25;;;;;;;3.20;0.43;;;;;;;7.64;100.00;95074.50;4378990;32;20284;-62
2023/12/24 09:50:51;;;;;;;0.00;0.00;;;;;;;7.67;100.00;95083.72;4377677;32;20292;-62
2023/12/24 09:53:16;;;;;;;0.10;0.10;;;;;;;7.55;100.00;95065.62;4379726;32;20365;-62
2023/12/24 09:55:41;;;;;;;0.10;0.10;;;;;;;7.70;100.00;95069.94;4372487;32;20215;-62
2023/12/24 09:58:09;;;;;;;0.07;0.07;;;;;;;7.64;100.00;95063.16;4368355;32;20196;-62
2023/12/24 10:00:36;;;;;;;0.00;0.00;;;;;;;7.47;100.00;95053.84;4370872;32;20188;-62
2023/12/24 10:03:01;;;;;;;0.10;0.10;;;;;;;7.48;100.00;95062.53;4385487;32;20284;-63
2023/12/24 10:05:26;;;;;;;0.10;0.10;;;;;;;7.48;100.00;95044.81;4333655;32;20285;-62
2023/12/24 10:07:53;;;;;;;0.13;0.13;;;;;;;7.50;100.00;95044.53;4364334;32;20261;-62
2023/12/24 10:10:29;;;;;;;0.00;0.00;;;;;;;7.59;100.00;95038.38;4382333;32;20254;-62
2023/12/24 10:13:06;;;;;;;0.20;0.20;;;;;;;7.61;100.00;95032.03;4368719;32;20294;-62
2023/12/24 10:15:32;;;;;;;0.20;0.20;;;;;;;7.59;100.00;95032.31;4361716;32;20295;-61
2023/12/24 10:18:17;;;;;;;0.03;0.03;;;;;;;7.69;100.00;95034.06;4391213;32;20291;-61
2023/12/24 10:20:44;;;;;;;0.10;0.10;;;;;;;7.76;100.00;95032.63;4380657;32;20363;-60
2023/12/24 10:23:10;;;;;;;0.10;0.10;;;;;;;7.86;100.00;95029.09;4345199;32;20276;-61
2023/12/24 10:25:35;;;;;;;0.07;0.03;;;;;;;7.98;100.00;95034.75;4378708;32;20306;-62
2023/12/24 10:28:06;;;;;;;0.10;0.10;;;;;;;7.97;100.00;95037.66;4380995;32;20243;-62
2023/12/24 10:30:32;;;;;;;1.10;0.43;;;;;;;7.98;100.00;95047.97;4356446;32;20311;-61
2023/12/24 10:33:09;;;;;;;0.00;0.00;;;;;;;7.95;100.00;95045.88;4391797;32;20326;-61
2023/12/24 10:35:35;;;;;;;0.20;0.20;;;;;;;8.00;100.00;95040.53;4367718;32;20296;-61
2023/12/24 10:38:16;;;;;;;0.10;0.10;;;;;;;8.08;100.00;95036.50;4390260;32;20292;-61
2023/12/24 10:40:42;;;;;;;0.00;0.00;;;;;;;8.15;100.00;95027.12;4400516;32;20398;-61
2023/12/24 10:43:07;;;;;;;0.00;0.00;;;;;;;8.31;99.41;95032.22;4389614;32;20274;-61
2023/12/24 10:45:33;;;;;;;0.00;0.00;;;;;;;8.45;97.27;95015.38;4393262;32;20195;-61
2023/12/24 10:48:00;;;;;;;0.00;0.00;;;;;;;8.46;97.63;95013.53;4420863;32;20196;-60
2023/12/24 10:50:26;;;;;;;0.00;0.00;;;;;;;8.45;97.11;94994.25;4379227;32;20207;-61
2023/12/24 10:52:55;;;;;;;0.00;0.00;;;;;;;8.49;98.06;94994.47;4376716;32;20390;-61
2023/12/24 10:55:24;;;;;;;0.23;0.23;;;;;;;8.65;96.72;95001.06;4399751;32;20355;-61
2023/12/24 10:58:21;;;;;;;0.00;0.00;;;;;;;8.70;96.55;94998.34;4399219;32;20287;-61
2023/12/24 11:00:48;;;;;;;0.00;0.00;;;;;;;8.76;95.20;94989.25;4406898;32;20342;-60
2023/12/24 11:03:49;;;;;;;0.00;0.00;;;;;;;9.02;91.85;94989.59;4403152;32;20333;-61
2023/12/24 11:06:36;;;;;;;0.00;0.00;;;;;;;9.15;92.14;94988.06;4408216;32;20283;-61
2023/12/24 11:09:22;;;;;;;0.00;0.00;;;;;;;9.21;93.99;94989.53;4381192;32;20283;-61
2023/12/24 11:11:55;;;;;;;0.10;0.10;;;;;;;9.26;94.16;94986.81;4363562;32;20284;-60
2023/12/24 11:14:36;;;;;;;0.20;0.20;;;;;;;9.36;94.46;94986.59;4392258;32;20282;-60
2023/12/24 11:17:02;;;;;;;0.10;0.10;;;;;;;9.31;95.90;94976.13;4378046;32;20192;-61
2023/12/24 11:19:30;;;;;;;0.00;0.00;;;;;;;9.25;98.34;94974.66;4373462;32;20248;-61
2023/12/24 11:22:11;;;;;;;0.00;0.00;;;;;;;9.17;100.00;94975.31;4389153;32;20196;-61
2023/12/24 11:24:42;;;;;;;0.50;0.20;;;;;;;9.08;100.00;94947.97;4390438;32;20199;-62
2023/12/24 11:27:11;;;;;;;0.00;0.00;;;;;;;9.01;100.00;94960.78;4381289;32;20339;-61
2023/12/24 11:29:46;;;;;;;0.00;0.00;;;;;;;8.94;100.00;94967.25;4368194;32;20319;-61
2023/12/24 11:32:32;;;;;;;0.20;0.00;;;;;;;8.84;100.00;94954.22;4384211;32;20283;-61
2023/12/24 11:34:59;;;;;;;0.10;0.10;;;;;;;8.81;100.00;94965.38;4384337;32;20349;-61
2023/12/24 11:37:31;;;;;;;0.03;0.03;;;;;;;8.83;100.00;94978.31;4385639;32;20291;-61
2023/12/24 11:40:02;;;;;;;0.20;0.20;;;;;;;8.79;100.00;94969.38;4393097;32;20188;-61
2023/12/24 11:42:47;;;;;;;0.00;0.00;;;;;;;8.70;100.00;94950.75;4378035;32;20335;-61